Time;durP1;ratioP1;P1;durP2;ratioP2;P2;SDS_P1;SDS_P2;PMS_P1;PMS_P2;Temp;Humidity;BMP_temperature;BMP_pressure;BME280_temperature;BME280_humidity;BME280_pressure;Samples;Min_cycle;Max_cycle;Signal;HPM_P1;HPM_P2
2022/01/15 00:01:58;;;;;;;10.13;8.15;;;18.30;31.20;;;;;;5068016;28;47085;-15
2022/01/15 00:04:25;;;;;;;9.48;8.25;;;18.30;31.10;;;;;;5067336;28;49027;-15
2022/01/15 00:06:52;;;;;;;10.30;7.82;;;18.30;31.10;;;;;;5067549;28;47004;-16
2022/01/15 00:09:19;;;;;;;10.13;8.30;;;18.30;31.80;;;;;;5067329;28;46931;-15
2022/01/15 00:11:46;;;;;;;10.07;7.93;;;18.20;31.20;;;;;;5067516;28;46901;-19
2022/01/15 00:14:16;;;;;;;9.90;7.63;;;18.20;31.20;;;;;;5067298;28;47844;-20
2022/01/15 00:16:48;;;;;;;9.73;7.90;;;18.20;31.20;;;;;;5067182;28;47080;-15
2022/01/15 00:19:18;;;;;;;10.63;8.57;;;18.20;31.10;;;;;;5067614;28;46866;-15
2022/01/15 00:21:44;;;;;;;8.88;7.55;;;18.30;31.10;;;;;;5067355;28;46894;-15
2022/01/15 00:24:11;;;;;;;9.40;8.23;;;18.20;31.00;;;;;;5066992;28;47929;-15
2022/01/15 00:26:38;;;;;;;8.65;7.75;;;18.20;31.00;;;;;;5067252;28;46807;-14
2022/01/15 00:29:04;;;;;;;9.27;7.82;;;18.20;31.00;;;;;;5067171;28;46970;-15
2022/01/15 00:31:32;;;;;;;9.30;8.00;;;18.20;31.00;;;;;;5067474;28;46909;-15
2022/01/15 00:33:58;;;;;;;10.18;7.68;;;18.20;31.00;;;;;;5066759;28;46988;-15
2022/01/15 00:36:26;;;;;;;9.63;7.90;;;18.30;31.00;;;;;;5067147;28;46838;-15
2022/01/15 00:38:53;;;;;;;10.52;7.65;;;18.30;30.90;;;;;;5067087;28;46993;-19
2022/01/15 00:41:20;;;;;;;8.85;7.93;;;18.30;31.00;;;;;;5067399;28;46906;-20
2022/01/15 00:43:46;;;;;;;9.85;7.72;;;18.20;30.90;;;;;;5066923;28;48836;-20
2022/01/15 00:46:13;;;;;;;10.40;8.30;;;18.20;31.50;;;;;;5066979;28;47254;-19
2022/01/15 00:48:40;;;;;;;9.07;7.82;;;18.20;31.00;;;;;;5066771;28;47049;-19
2022/01/15 00:51:06;;;;;;;9.27;7.95;;;18.20;30.90;;;;;;5066996;28;46885;-15
2022/01/15 00:53:34;;;;;;;9.55;8.18;;;18.20;30.80;;;;;;5066368;28;49048;-15
2022/01/15 00:56:01;;;;;;;8.98;7.82;;;18.20;30.70;;;;;;5066630;28;47519;-15
2022/01/15 00:58:28;;;;;;;10.15;8.73;;;18.20;30.80;;;;;;5066454;28;46903;-15
2022/01/15 01:00:55;;;;;;;9.75;7.97;;;18.20;30.80;;;;;;5067016;28;47066;-15
2022/01/15 01:03:21;;;;;;;11.48;8.13;;;18.20;30.80;;;;;;5066807;28;47838;-15
2022/01/15 01:05:48;;;;;;;8.77;7.80;;;18.20;30.80;;;;;;5066535;28;46867;-15
2022/01/15 01:08:15;;;;;;;8.75;7.68;;;18.20;30.70;;;;;;5066716;28;47053;-15
2022/01/15 01:10:56;;;;;;;9.52;7.63;;;18.20;30.70;;;;;;5066773;28;46849;-14
2022/01/15 01:13:42;;;;;;;10.30;7.75;;;18.20;30.60;;;;;;5066233;28;49313;-19
2022/01/15 01:24:21;;;;;;;8.43;7.28;;;18.20;30.50;;;;;;5034098;28;46996;-13
2022/01/15 01:26:54;;;;;;;8.60;7.53;;;18.20;30.50;;;;;;5066335;28;47199;-13
2022/01/15 01:29:30;;;;;;;8.63;7.72;;;18.10;30.50;;;;;;5066264;28;46945;-13
2022/01/15 01:32:02;;;;;;;8.90;7.75;;;18.10;30.50;;;;;;5066742;28;46882;-13
2022/01/15 01:34:31;;;;;;;9.65;7.72;;;18.20;30.60;;;;;;5065566;28;49040;-13
2022/01/15 01:37:03;;;;;;;9.40;7.18;;;18.20;31.10;;;;;;5065911;28;46803;-17
2022/01/15 01:39:39;;;;;;;9.10;7.70;;;18.20;30.50;;;;;;5065832;28;46787;-17
2022/01/15 01:42:14;;;;;;;8.68;7.72;;;18.20;30.40;;;;;;5066478;28;46954;-18
2022/01/15 01:44:57;;;;;;;7.78;7.07;;;18.10;30.40;;;;;;5065788;28;47846;-18
2022/01/15 01:47:35;;;;;;;8.75;6.97;;;18.20;30.50;;;;;;5065911;28;47044;-18
2022/01/15 01:50:01;;;;;;;7.88;7.07;;;18.20;30.40;;;;;;5065876;28;47006;-18
2022/01/15 01:52:28;;;;;;;8.27;7.25;;;18.20;30.40;;;;;;5066052;28;46922;-17
2022/01/15 01:54:55;;;;;;;8.65;7.45;;;18.20;30.30;;;;;;5065806;28;49045;-17
2022/01/15 01:57:23;;;;;;;7.80;7.00;;;18.20;30.30;;;;;;5065823;28;47430;-18
2022/01/15 01:59:50;;;;;;;9.07;7.53;;;18.20;30.40;;;;;;5065722;28;46958;-27
2022/01/15 02:02:17;;;;;;;7.70;6.85;;;18.20;30.40;;;;;;5065949;28;46892;-18
2022/01/15 02:04:43;;;;;;;7.50;6.47;;;18.20;30.30;;;;;;5065363;28;48108;-18
2022/01/15 02:07:10;;;;;;;9.88;7.30;;;18.20;30.30;;;;;;5065644;28;47429;-18
2022/01/15 02:09:38;;;;;;;7.70;6.90;;;18.20;30.20;;;;;;5065782;28;47348;-18
2022/01/15 02:12:05;;;;;;;7.55;6.78;;;18.20;30.20;;;;;;5066167;28;47092;-19
2022/01/15 02:14:33;;;;;;;7.50;6.80;;;18.20;30.20;;;;;;5065594;28;49073;-19
2022/01/15 02:17:00;;;;;;;7.72;6.93;;;18.20;30.20;;;;;;5065313;28;47066;-18
2022/01/15 02:19:31;;;;;;;9.43;7.18;;;18.20;30.20;;;;;;5065417;28;46887;-18
2022/01/15 02:24:42;;;;;;;7.43;6.40;;;18.20;30.20;;;;;;5065299;28;46727;-18
2022/01/15 02:27:09;;;;;;;6.82;6.13;;;18.20;30.10;;;;;;5065467;28;47269;-19
2022/01/15 02:29:36;;;;;;;6.80;5.97;;;18.20;30.20;;;;;;5065255;28;46850;-18
2022/01/15 02:32:03;;;;;;;7.43;6.63;;;18.20;30.20;;;;;;5065676;28;47344;-18
2022/01/15 02:34:31;;;;;;;6.78;5.85;;;18.20;30.20;;;;;;5065050;28;48094;-19
2022/01/15 02:36:57;;;;;;;7.10;6.40;;;18.20;30.20;;;;;;5065334;28;46920;-19
2022/01/15 02:39:24;;;;;;;7.57;6.47;;;18.20;30.10;;;;;;5065203;28;46829;-19
2022/01/15 02:41:51;;;;;;;8.73;6.28;;;18.20;30.00;;;;;;5065280;28;47314;-19
2022/01/15 02:44:19;;;;;;;8.23;6.78;;;18.20;30.10;;;;;;5065095;28;48161;-19
2022/01/15 02:49:31;;;;;;;6.80;6.20;;;18.20;30.10;;;;;;5064758;28;46846;-19
2022/01/15 02:51:58;;;;;;;6.78;6.18;;;18.30;30.10;;;;;;5065382;28;46885;-19
2022/01/15 02:54:25;;;;;;;7.32;6.60;;;18.30;30.00;;;;;;5064758;28;48669;-19
2022/01/15 02:56:52;;;;;;;8.35;7.05;;;18.30;30.00;;;;;;5064807;28;47134;-18
2022/01/15 02:59:19;;;;;;;6.93;6.22;;;18.30;30.00;;;;;;5064858;28;46872;-18
2022/01/15 03:01:48;;;;;;;6.70;6.07;;;18.30;30.00;;;;;;5065357;28;46898;-14
2022/01/15 03:04:15;;;;;;;7.53;6.72;;;18.30;30.00;;;;;;5064500;28;47851;-14
2022/01/15 03:06:43;;;;;;;6.72;5.85;;;18.30;30.00;;;;;;5064936;28;47489;-14
2022/01/15 03:09:10;;;;;;;6.60;5.75;;;18.30;30.00;;;;;;5065008;28;46918;-14
2022/01/15 03:11:36;;;;;;;6.88;6.18;;;18.30;30.00;;;;;;5065134;28;46880;-14
2022/01/15 03:14:03;;;;;;;7.32;5.90;;;18.30;30.00;;;;;;5064614;28;48530;-14
2022/01/15 03:16:30;;;;;;;7.13;6.45;;;18.20;30.00;;;;;;5064814;28;46834;-14
2022/01/15 03:18:57;;;;;;;5.95;5.35;;;18.20;30.00;;;;;;5064624;28;47972;-14
2022/01/15 03:21:24;;;;;;;6.78;6.07;;;18.20;30.00;;;;;;5064754;28;47155;-14
2022/01/15 03:23:52;;;;;;;6.85;6.15;;;18.30;30.00;;;;;;5064683;28;46920;-13
2022/01/15 03:26:19;;;;;;;6.97;6.28;;;18.30;30.00;;;;;;5064760;28;47097;-14
2022/01/15 03:28:45;;;;;;;7.00;6.30;;;18.20;29.90;;;;;;5064522;28;46753;-14
2022/01/15 03:31:12;;;;;;;6.93;6.00;;;18.20;30.00;;;;;;5065044;28;47085;-14
2022/01/15 03:33:39;;;;;;;7.35;5.93;;;18.20;30.50;;;;;;5065834;28;48153;-14
2022/01/15 03:36:06;;;;;;;7.25;6.53;;;18.20;30.00;;;;;;5068291;28;46907;-15
2022/01/15 03:38:32;;;;;;;6.65;5.93;;;18.20;30.00;;;;;;5067811;28;46836;-14
2022/01/15 03:41:00;;;;;;;6.93;6.25;;;18.20;30.00;;;;;;5068336;28;46886;-14
2022/01/15 03:43:27;;;;;;;6.88;6.18;;;18.20;29.90;;;;;;5067825;28;48930;-14
2022/01/15 03:45:54;;;;;;;6.85;6.15;;;18.20;29.90;;;;;;5067952;28;46917;-14
2022/01/15 03:48:20;;;;;;;6.65;6.05;;;18.20;29.90;;;;;;5067549;28;46969;-14
2022/01/15 03:50:47;;;;;;;7.07;6.38;;;18.20;29.90;;;;;;5068077;28;47293;-14
2022/01/15 03:53:14;;;;;;;6.60;6.00;;;18.20;29.90;;;;;;5067723;28;48057;-14
2022/01/15 03:55:40;;;;;;;6.85;6.07;;;18.20;29.90;;;;;;5067541;28;46791;-14
2022/01/15 03:58:08;;;;;;;7.15;6.13;;;18.20;29.90;;;;;;5067961;28;47021;-14
2022/01/15 04:00:35;;;;;;;6.90;6.20;;;18.20;29.80;;;;;;5068096;28;46912;-14
2022/01/15 04:03:03;;;;;;;6.93;6.22;;;18.20;29.90;;;;;;5067615;28;46816;-14
2022/01/15 04:05:30;;;;;;;7.03;6.10;;;18.20;29.90;;;;;;5067190;28;46756;-14
2022/01/15 04:07:57;;;;;;;7.03;6.30;;;18.20;29.90;;;;;;5067593;28;46949;-14
2022/01/15 04:10:24;;;;;;;6.57;5.97;;;18.20;29.80;;;;;;5067953;28;46909;-14
2022/01/15 04:12:50;;;;;;;6.57;5.97;;;18.20;29.80;;;;;;5067316;28;48946;-14
2022/01/15 04:15:19;;;;;;;7.22;6.10;;;18.20;29.80;;;;;;5067320;28;46994;-14
2022/01/15 04:17:48;;;;;;;6.50;5.90;;;18.20;29.80;;;;;;5067053;28;46805;-14
2022/01/15 04:20:16;;;;;;;6.80;6.07;;;18.10;29.80;;;;;;5067864;28;46842;-14
2022/01/15 04:22:43;;;;;;;6.50;5.68;;;18.10;29.70;;;;;;5067187;28;46907;-14
2022/01/15 04:25:10;;;;;;;5.88;5.35;;;18.20;29.80;;;;;;5067137;28;46797;-14
2022/01/15 04:27:38;;;;;;;6.53;5.80;;;18.10;29.70;;;;;;5067230;28;46932;-14
2022/01/15 04:30:06;;;;;;;6.28;5.68;;;18.10;29.70;;;;;;5067339;28;46897;-14
2022/01/15 04:32:34;;;;;;;5.85;5.25;;;18.10;29.70;;;;;;5067012;28;48425;-14
2022/01/15 04:35:00;;;;;;;6.38;5.78;;;18.10;29.70;;;;;;5067279;28;46820;-14
2022/01/15 04:37:35;;;;;;;6.82;6.13;;;18.10;29.70;;;;;;5066890;28;46873;-14
2022/01/15 04:40:02;;;;;;;6.63;5.93;;;18.10;29.70;;;;;;5067501;28;46901;-14
2022/01/15 04:42:29;;;;;;;7.03;6.32;;;18.10;29.70;;;;;;5067027;28;46965;-14
2022/01/15 04:44:56;;;;;;;6.40;5.80;;;18.10;29.70;;;;;;5066603;28;46988;-14
2022/01/15 04:47:23;;;;;;;6.55;5.80;;;18.10;29.70;;;;;;5066974;28;46885;-15
2022/01/15 04:49:56;;;;;;;7.05;6.03;;;18.10;29.70;;;;;;5067133;28;47185;-15
2022/01/15 04:52:23;;;;;;;6.45;5.85;;;18.10;29.70;;;;;;5066472;28;47903;-13
2022/01/15 04:54:50;;;;;;;6.00;5.30;;;18.10;29.70;;;;;;5066913;28;46902;-14
2022/01/15 04:57:16;;;;;;;7.20;5.95;;;18.10;29.70;;;;;;5066965;28;46815;-13
2022/01/15 04:59:43;;;;;;;6.30;5.70;;;18.10;29.70;;;;;;5067155;28;47044;-15
2022/01/15 05:02:10;;;;;;;6.90;6.20;;;18.10;29.60;;;;;;5066718;28;48066;-14
2022/01/15 05:04:37;;;;;;;6.78;5.68;;;18.10;29.70;;;;;;5066381;28;46875;-14
2022/01/15 05:07:05;;;;;;;6.75;6.05;;;18.00;29.70;;;;;;5066470;28;46860;-14
2022/01/15 05:09:31;;;;;;;6.53;5.75;;;18.10;29.70;;;;;;5066907;28;46779;-14
2022/01/15 05:12:02;;;;;;;7.53;6.20;;;18.10;29.70;;;;;;5066559;28;48227;-14
2022/01/15 05:14:29;;;;;;;7.10;6.35;;;18.00;29.60;;;;;;5066767;28;46901;-14
2022/01/15 05:16:56;;;;;;;6.90;5.68;;;18.10;29.60;;;;;;5066660;28;46791;-14
2022/01/15 05:19:22;;;;;;;6.32;5.72;;;18.10;29.60;;;;;;5066493;28;47255;-14
2022/01/15 05:21:49;;;;;;;6.47;5.72;;;18.10;29.70;;;;;;5066429;28;48122;-14
2022/01/15 05:24:17;;;;;;;6.05;5.45;;;18.10;29.70;;;;;;5066437;28;46843;-14
2022/01/15 05:26:44;;;;;;;7.03;6.00;;;18.10;29.70;;;;;;5066461;28;46818;-14
2022/01/15 05:29:11;;;;;;;6.25;5.65;;;18.10;29.70;;;;;;5066054;28;47306;-14
2022/01/15 05:31:37;;;;;;;6.50;5.80;;;18.10;29.60;;;;;;5066248;28;48011;-14
2022/01/15 05:34:04;;;;;;;7.03;6.28;;;18.10;29.70;;;;;;5065872;28;46908;-14
2022/01/15 05:36:31;;;;;;;6.22;5.47;;;18.10;29.70;;;;;;5066064;28;46920;-13
2022/01/15 05:38:58;;;;;;;6.20;5.60;;;18.10;29.70;;;;;;5065996;28;47346;-14
2022/01/15 05:41:26;;;;;;;6.05;5.45;;;18.10;29.70;;;;;;5066123;28;48666;-14
2022/01/15 05:43:52;;;;;;;6.13;5.53;;;18.10;29.70;;;;;;5065708;28;47500;-14
2022/01/15 05:46:19;;;;;;;7.20;6.22;;;18.10;29.60;;;;;;5066036;28;46835;-14
2022/01/15 05:48:46;;;;;;;6.43;5.82;;;18.10;29.70;;;;;;5066080;28;47011;-14
2022/01/15 05:51:13;;;;;;;6.85;5.90;;;18.00;29.70;;;;;;5065961;28;48064;-14
2022/01/15 05:53:39;;;;;;;6.72;6.03;;;18.00;29.70;;;;;;5065770;28;46925;-14
2022/01/15 05:56:06;;;;;;;7.28;5.70;;;18.00;29.70;;;;;;5064792;28;46798;-14
2022/01/15 05:58:34;;;;;;;6.40;5.80;;;18.10;29.70;;;;;;5065937;28;47150;-14
2022/01/15 06:01:01;;;;;;;6.47;5.70;;;18.10;29.70;;;;;;5065800;28;46936;-13
2022/01/15 06:03:27;;;;;;;6.30;5.70;;;18.10;29.70;;;;;;5065564;28;46963;-19
2022/01/15 06:05:54;;;;;;;5.95;5.10;;;18.00;29.70;;;;;;5065775;28;46882;-19
2022/01/15 06:08:21;;;;;;;5.50;5.00;;;18.10;29.80;;;;;;5065933;28;46898;-19
2022/01/15 06:10:47;;;;;;;6.22;5.63;;;18.10;29.70;;;;;;5065487;28;48104;-14
2022/01/15 06:13:14;;;;;;;6.10;5.50;;;18.10;29.70;;;;;;5065255;28;47008;-14
2022/01/15 06:15:42;;;;;;;5.78;5.20;;;18.10;29.70;;;;;;5065652;28;46854;-15
2022/01/15 06:18:09;;;;;;;6.68;5.97;;;18.10;29.70;;;;;;5065457;28;47262;-14
2022/01/15 06:20:35;;;;;;;6.78;6.05;;;18.10;29.70;;;;;;5065613;28;49148;-14
2022/01/15 06:23:02;;;;;;;5.60;5.00;;;18.10;29.70;;;;;;5065408;28;46882;-14
2022/01/15 06:25:29;;;;;;;6.13;5.53;;;18.10;29.70;;;;;;5065513;28;46955;-14
2022/01/15 06:27:56;;;;;;;6.53;5.70;;;18.10;29.70;;;;;;5065408;28;46957;-14
2022/01/15 06:30:22;;;;;;;6.60;5.35;;;18.10;29.60;;;;;;5065377;28;48033;-15
2022/01/15 06:32:50;;;;;;;5.38;4.93;;;18.10;29.70;;;;;;5064985;28;46898;-14
2022/01/15 06:35:17;;;;;;;6.05;5.45;;;18.10;29.70;;;;;;5065341;28;46965;-14
2022/01/15 06:37:47;;;;;;;5.95;5.35;;;18.10;29.60;;;;;;5065358;28;46899;-14
2022/01/15 06:40:14;;;;;;;6.45;5.85;;;18.10;29.70;;;;;;5064979;28;48185;-14
2022/01/15 06:42:41;;;;;;;5.90;5.40;;;18.10;29.70;;;;;;5064885;28;46958;-14
2022/01/15 06:45:09;;;;;;;6.78;5.53;;;18.10;29.60;;;;;;5065057;28;46862;-15
2022/01/15 06:47:35;;;;;;;5.88;5.13;;;18.10;29.60;;;;;;5065000;28;47196;-14
2022/01/15 06:50:05;;;;;;;6.30;5.55;;;18.10;29.60;;;;;;5065130;28;49072;-14
2022/01/15 06:52:32;;;;;;;5.90;5.30;;;18.10;29.70;;;;;;5064811;28;46918;-14
2022/01/15 06:54:59;;;;;;;6.18;5.57;;;18.10;29.70;;;;;;5065198;28;46861;-14
2022/01/15 06:57:26;;;;;;;6.25;5.15;;;18.10;29.70;;;;;;5065100;28;47266;-14
2022/01/15 06:59:53;;;;;;;6.20;5.60;;;18.10;29.70;;;;;;5065095;28;46909;-15
2022/01/15 07:02:20;;;;;;;6.15;5.55;;;18.10;29.60;;;;;;5064788;28;46740;-15
2022/01/15 07:04:47;;;;;;;5.72;5.10;;;18.10;29.60;;;;;;5065078;28;46739;-14
2022/01/15 07:07:15;;;;;;;6.03;5.53;;;18.10;29.60;;;;;;5066461;28;47313;-15
2022/01/15 07:09:42;;;;;;;5.65;5.15;;;18.10;29.70;;;;;;5068465;28;46872;-14
2022/01/15 07:12:10;;;;;;;5.82;5.22;;;18.10;29.60;;;;;;5068522;28;47337;-15
2022/01/15 07:14:36;;;;;;;6.00;5.50;;;18.10;29.60;;;;;;5068302;28;46771;-14
2022/01/15 07:17:03;;;;;;;6.35;5.72;;;18.10;29.60;;;;;;5068424;28;47283;-14
2022/01/15 07:19:31;;;;;;;6.22;5.55;;;18.10;29.60;;;;;;5067873;28;47994;-13
2022/01/15 07:21:58;;;;;;;5.93;5.32;;;18.10;29.60;;;;;;5068281;28;46895;-14
2022/01/15 07:24:26;;;;;;;6.30;5.68;;;18.10;29.60;;;;;;5068075;28;46966;-14
2022/01/15 07:26:52;;;;;;;6.07;5.47;;;18.10;29.70;;;;;;5068304;28;46910;-14
2022/01/15 07:29:19;;;;;;;6.22;5.63;;;18.10;29.60;;;;;;5067725;28;47149;-14
2022/01/15 07:31:46;;;;;;;5.93;5.40;;;18.10;29.60;;;;;;5068082;28;46823;-14
2022/01/15 07:34:13;;;;;;;5.28;4.82;;;18.10;29.60;;;;;;5068048;28;46841;-14
2022/01/15 07:36:40;;;;;;;6.22;5.63;;;18.10;29.60;;;;;;5068262;28;46882;-14
2022/01/15 07:39:08;;;;;;;5.65;5.13;;;18.10;29.60;;;;;;5067577;28;47959;-14
2022/01/15 07:41:36;;;;;;;5.85;5.28;;;18.10;29.70;;;;;;5067670;28;46970;-14
2022/01/15 07:44:03;;;;;;;5.35;4.85;;;18.10;29.70;;;;;;5067887;28;46916;-14
2022/01/15 07:46:29;;;;;;;5.88;5.32;;;18.10;29.60;;;;;;5068030;28;46862;-14
2022/01/15 07:48:56;;;;;;;6.05;5.55;;;18.10;29.60;;;;;;5067709;28;48110;-13
2022/01/15 07:51:23;;;;;;;6.28;5.13;;;18.10;29.60;;;;;;5067830;28;46811;-14
2022/01/15 07:53:50;;;;;;;6.20;5.60;;;18.10;29.60;;;;;;5067349;28;47156;-14
2022/01/15 07:56:16;;;;;;;5.93;5.32;;;18.10;29.60;;;;;;5067986;28;46917;-14
2022/01/15 07:58:44;;;;;;;6.13;5.38;;;18.00;29.60;;;;;;5067621;28;48029;-15
2022/01/15 08:01:11;;;;;;;5.97;5.40;;;18.10;29.60;;;;;;5067863;28;47230;-14
2022/01/15 08:03:38;;;;;;;5.93;5.35;;;18.10;29.60;;;;;;5067315;28;47071;-14
2022/01/15 08:06:06;;;;;;;6.10;5.47;;;18.10;29.50;;;;;;5067558;28;46928;-14
2022/01/15 08:08:33;;;;;;;5.60;5.10;;;18.10;29.60;;;;;;5066937;28;49088;-14
2022/01/15 08:11:00;;;;;;;6.43;5.70;;;18.10;29.60;;;;;;5067603;28;47188;-15
2022/01/15 08:13:26;;;;;;;5.80;5.20;;;18.10;29.60;;;;;;5067248;28;46919;-14
2022/01/15 08:15:55;;;;;;;6.35;5.20;;;18.10;29.60;;;;;;5067649;28;46901;-14
2022/01/15 08:18:22;;;;;;;6.63;5.70;;;18.10;29.60;;;;;;5065942;28;46882;-15
2022/01/15 08:20:49;;;;;;;5.90;5.30;;;18.10;29.60;;;;;;5067196;28;47425;-14
2022/01/15 08:23:16;;;;;;;5.82;5.22;;;18.10;29.60;;;;;;5066806;28;46798;-14
2022/01/15 08:25:42;;;;;;;6.20;5.22;;;18.10;29.60;;;;;;5067337;28;47103;-14
2022/01/15 08:28:09;;;;;;;6.70;5.85;;;18.10;29.60;;;;;;5066817;28;47895;-14
2022/01/15 08:30:36;;;;;;;5.38;4.88;;;18.10;29.60;;;;;;5067063;28;47200;-14
2022/01/15 08:33:04;;;;;;;6.00;5.25;;;18.10;29.50;;;;;;5066735;28;47131;-14
2022/01/15 08:35:30;;;;;;;6.10;5.50;;;18.10;29.50;;;;;;5067142;28;46934;-15
2022/01/15 08:37:58;;;;;;;5.63;5.13;;;18.10;29.50;;;;;;5066978;28;49135;-14
2022/01/15 08:40:24;;;;;;;6.63;5.07;;;18.10;29.50;;;;;;5067046;28;46955;-14
2022/01/15 08:42:51;;;;;;;6.32;5.38;;;18.10;29.60;;;;;;5066692;28;46900;-14
2022/01/15 08:45:19;;;;;;;5.80;5.30;;;18.10;29.60;;;;;;5067362;28;46892;-15
2022/01/15 08:47:45;;;;;;;5.50;5.00;;;18.10;29.60;;;;;;5066692;28;48804;-14
2022/01/15 08:50:15;;;;;;;6.13;5.53;;;18.10;29.50;;;;;;5066936;28;46866;-15
2022/01/15 08:52:43;;;;;;;5.97;5.10;;;18.10;29.50;;;;;;5066873;28;47015;-15
2022/01/15 08:55:10;;;;;;;6.00;5.40;;;18.10;29.50;;;;;;5067177;28;47212;-14
2022/01/15 08:57:37;;;;;;;5.30;4.80;;;18.10;29.60;;;;;;5066503;28;48834;-15
2022/01/15 09:00:05;;;;;;;5.90;5.30;;;18.10;29.60;;;;;;5066660;28;46812;-14
2022/01/15 09:02:32;;;;;;;6.43;5.10;;;18.10;29.60;;;;;;5066855;28;46921;-14
2022/01/15 09:04:59;;;;;;;7.55;5.55;;;18.10;29.60;;;;;;5067215;28;47026;-14
2022/01/15 09:07:27;;;;;;;5.88;5.28;;;18.10;29.60;;;;;;5066509;28;48872;-15
2022/01/15 09:09:53;;;;;;;6.80;5.55;;;18.10;29.60;;;;;;5066435;28;46732;-15
2022/01/15 09:12:22;;;;;;;5.60;5.10;;;18.10;29.70;;;;;;5066896;28;46997;-15
2022/01/15 09:14:49;;;;;;;5.72;5.15;;;18.10;29.70;;;;;;5068657;28;46949;-15
2022/01/15 09:17:16;;;;;;;5.95;5.28;;;18.10;29.60;;;;;;5086108;28;47314;-15
2022/01/15 09:19:43;;;;;;;6.35;5.53;;;18.10;29.60;;;;;;5085235;28;46955;-16
2022/01/15 09:22:11;;;;;;;6.07;5.15;;;18.10;29.60;;;;;;5085175;28;46816;-16
2022/01/15 09:24:39;;;;;;;6.15;5.55;;;18.10;29.70;;;;;;5085371;28;46925;-15
2022/01/15 09:32:31;;;;;;;5.70;5.13;;;18.20;29.70;;;;;;5082592;28;47039;-14
2022/01/15 09:34:58;;;;;;;5.80;5.25;;;18.20;29.60;;;;;;5086274;28;47066;-14
2022/01/15 09:37:24;;;;;;;6.20;5.60;;;18.20;29.60;;;;;;5086495;28;48109;-15
2022/01/15 09:39:52;;;;;;;5.57;5.05;;;18.20;29.60;;;;;;5086309;28;46822;-19
2022/01/15 09:42:20;;;;;;;6.22;5.22;;;18.20;29.70;;;;;;5086624;28;46891;-19
2022/01/15 09:44:46;;;;;;;5.60;5.10;;;18.20;29.70;;;;;;5086403;28;46818;-19
2022/01/15 09:47:13;;;;;;;5.65;5.15;;;18.20;29.60;;;;;;5086180;28;48040;-19
2022/01/15 09:49:40;;;;;;;6.22;5.53;;;18.20;29.60;;;;;;5085879;28;46926;-19
2022/01/15 09:52:07;;;;;;;6.65;5.35;;;18.20;29.60;;;;;;5086064;28;46779;-19
2022/01/15 09:54:34;;;;;;;6.05;5.45;;;18.20;29.70;;;;;;5086220;28;46820;-20
2022/01/15 09:57:02;;;;;;;5.55;5.05;;;18.20;29.70;;;;;;5085984;28;48857;-19
2022/01/15 09:59:29;;;;;;;6.30;5.35;;;18.20;29.70;;;;;;5085750;28;46952;-19
2022/01/15 10:01:57;;;;;;;6.32;5.72;;;18.30;29.60;;;;;;5086196;28;46846;-18
2022/01/15 10:04:24;;;;;;;6.55;5.68;;;18.30;29.60;;;;;;5085893;28;47137;-19
2022/01/15 10:07:07;;;;;;;6.15;5.55;;;18.30;30.00;;;;;;5086049;28;46925;-19
2022/01/15 10:09:34;;;;;;;6.25;5.65;;;18.30;29.60;;;;;;5085816;28;47412;-19
2022/01/15 10:12:02;;;;;;;6.18;5.47;;;18.30;29.60;;;;;;5086073;28;46810;-19
2022/01/15 10:14:30;;;;;;;5.80;5.30;;;18.30;29.60;;;;;;5086057;28;47113;-19
2022/01/15 10:16:57;;;;;;;5.55;5.05;;;18.30;29.60;;;;;;5085931;28;47944;-19
2022/01/15 10:19:28;;;;;;;6.10;5.25;;;18.30;29.60;;;;;;5085522;28;46901;-19
2022/01/15 10:22:08;;;;;;;7.72;5.80;;;18.30;29.60;;;;;;5085835;28;47033;-19
2022/01/15 10:24:35;;;;;;;6.13;5.53;;;18.30;29.60;;;;;;5085838;27;47302;-19
2022/01/15 10:27:20;;;;;;;5.97;5.38;;;18.30;29.60;;;;;;5085886;28;48039;-20
2022/01/15 10:29:51;;;;;;;5.53;5.03;;;18.30;29.60;;;;;;5085686;28;47082;-19
2022/01/15 10:32:18;;;;;;;5.63;4.95;;;18.30;29.60;;;;;;5085551;28;46782;-19
2022/01/15 10:34:45;;;;;;;5.95;5.35;;;18.30;29.60;;;;;;5085378;28;47191;-19
2022/01/15 10:37:13;;;;;;;6.13;5.00;;;18.30;29.50;;;;;;5085664;28;48168;-14
2022/01/15 10:39:40;;;;;;;5.80;5.22;;;18.30;29.50;;;;;;5085399;28;46826;-14
2022/01/15 10:42:14;;;;;;;6.05;5.45;;;18.30;29.50;;;;;;5084974;27;46827;-15
2022/01/15 10:44:44;;;;;;;5.53;5.00;;;18.30;29.50;;;;;;5085449;28;46925;-14
2022/01/15 10:47:13;;;;;;;5.47;4.88;;;18.40;29.50;;;;;;5085553;28;48148;-15
2022/01/15 10:49:40;;;;;;;5.82;5.22;;;18.40;29.50;;;;;;5085104;28;46916;-14
2022/01/15 10:52:11;;;;;;;6.55;5.68;;;18.40;29.40;;;;;;5085574;28;46894;-15
2022/01/15 10:54:54;;;;;;;5.85;5.30;;;18.40;29.40;;;;;;5085627;28;46786;-19
2022/01/15 10:57:23;;;;;;;6.05;5.45;;;18.40;29.50;;;;;;5085750;28;48793;-20
2022/01/15 10:59:58;;;;;;;6.05;5.30;;;18.40;29.50;;;;;;5085456;28;47009;-19
2022/01/15 11:02:24;;;;;;;5.85;5.25;;;18.40;29.50;;;;;;5085390;28;46960;-19
2022/01/15 11:04:51;;;;;;;6.80;5.45;;;18.40;29.50;;;;;;5085600;28;46876;-19
2022/01/15 11:07:18;;;;;;;6.13;5.53;;;18.40;29.40;;;;;;5084992;28;49043;-19
2022/01/15 11:09:46;;;;;;;6.30;5.70;;;18.40;29.40;;;;;;5084810;28;46925;-19
2022/01/15 11:12:12;;;;;;;5.60;5.10;;;18.40;29.40;;;;;;5085295;28;46817;-19
2022/01/15 11:14:39;;;;;;;5.35;4.85;;;18.40;29.50;;;;;;5084926;28;47130;-19
2022/01/15 11:17:07;;;;;;;5.93;5.32;;;18.40;29.50;;;;;;5084827;28;46914;-20
2022/01/15 11:19:35;;;;;;;5.97;5.35;;;18.40;29.50;;;;;;5084843;28;47113;-20
2022/01/15 11:22:02;;;;;;;6.00;5.40;;;18.40;29.50;;;;;;5085218;28;46963;-19
2022/01/15 11:24:29;;;;;;;5.25;4.75;;;18.40;29.60;;;;;;5084790;28;47308;-19
2022/01/15 11:26:58;;;;;;;5.78;4.82;;;18.40;29.60;;;;;;5085012;28;47861;-19
2022/01/15 11:29:25;;;;;;;5.85;5.05;;;18.40;29.60;;;;;;5084511;28;47446;-19
2022/01/15 11:31:53;;;;;;;6.20;5.63;;;18.50;29.70;;;;;;5085183;28;46802;-19
2022/01/15 11:34:21;;;;;;;5.82;5.22;;;18.60;29.70;;;;;;5084310;28;47080;-19
2022/01/15 11:36:48;;;;;;;5.80;5.20;;;18.60;29.60;;;;;;5085084;28;48872;-20
2022/01/15 11:39:18;;;;;;;5.78;5.18;;;18.60;29.60;;;;;;5084704;28;47224;-20
2022/01/15 11:41:44;;;;;;;6.10;5.40;;;18.60;29.60;;;;;;5084695;28;46875;-15
2022/01/15 11:44:14;;;;;;;5.80;5.20;;;18.60;29.50;;;;;;5084812;28;47105;-15
2022/01/15 11:46:46;;;;;;;5.82;5.22;;;18.60;29.60;;;;;;5084748;28;46862;-14
2022/01/15 11:49:45;;;;;;;6.00;5.28;;;18.70;29.60;;;;;;5084409;28;47137;-14
2022/01/15 11:52:31;;;;;;;6.60;5.80;;;18.70;29.60;;;;;;5021985;28;47024;-15
2022/01/15 11:55:20;;;;;;;6.97;5.93;;;18.70;29.60;;;;;;5081321;27;46826;-15
2022/01/15 11:57:52;;;;;;;6.00;5.40;;;18.70;29.60;;;;;;5087908;27;46998;-15
2022/01/15 12:00:21;;;;;;;6.97;6.28;;;18.70;29.60;;;;;;5087914;28;46901;-15
2022/01/15 12:03:00;;;;;;;6.03;5.45;;;18.70;29.70;;;;;;5087742;28;46810;-15
2022/01/15 12:05:30;;;;;;;6.28;5.68;;;18.70;29.70;;;;;;5088492;28;46907;-15
2022/01/15 12:08:22;;;;;;;5.53;5.03;;;18.70;29.70;;;;;;5087636;28;48067;-14
2022/01/15 12:10:50;;;;;;;6.90;5.53;;;18.70;29.60;;;;;;5087674;28;46835;-14
2022/01/15 12:13:18;;;;;;;6.85;6.15;;;18.70;29.70;;;;;;5087764;27;47985;-15
2022/01/15 12:15:45;;;;;;;6.75;5.70;;;18.60;29.70;;;;;;5087813;28;46922;-15
2022/01/15 12:18:15;;;;;;;6.10;5.50;;;18.60;29.80;;;;;;5087602;28;47869;-15
2022/01/15 12:20:43;;;;;;;6.60;5.90;;;18.60;29.80;;;;;;5087497;28;47399;-15
2022/01/15 12:23:27;;;;;;;6.53;5.78;;;18.60;29.80;;;;;;5087350;28;46784;-15
2022/01/15 12:25:54;;;;;;;7.00;6.22;;;18.60;29.90;;;;;;5087723;28;46900;-15
2022/01/15 12:28:22;;;;;;;8.05;5.93;;;18.60;29.80;;;;;;5087457;28;47846;-15
2022/01/15 12:30:50;;;;;;;7.82;6.07;;;18.60;29.80;;;;;;5087809;28;46839;-15
2022/01/15 12:33:18;;;;;;;6.32;5.72;;;18.60;29.90;;;;;;5087394;28;46908;-15
2022/01/15 12:35:47;;;;;;;7.30;5.97;;;18.50;29.90;;;;;;5087627;28;47279;-14
2022/01/15 12:38:15;;;;;;;6.85;6.00;;;18.50;29.90;;;;;;5086981;28;48193;-15
2022/01/15 12:40:42;;;;;;;7.00;6.30;;;18.50;29.90;;;;;;5087511;28;46849;-15
2022/01/15 12:43:11;;;;;;;6.22;5.63;;;18.50;29.90;;;;;;5087478;28;46752;-15
2022/01/15 12:45:38;;;;;;;8.30;6.15;;;18.50;29.90;;;;;;5087811;28;47214;-15
2022/01/15 12:48:05;;;;;;;7.15;6.07;;;18.50;29.90;;;;;;5086874;28;46860;-15
2022/01/15 12:50:42;;;;;;;7.13;6.20;;;18.50;30.00;;;;;;5086948;28;46900;-15
2022/01/15 12:53:10;;;;;;;6.95;6.13;;;18.50;29.90;;;;;;5087140;28;46815;-15
2022/01/15 12:55:37;;;;;;;6.63;5.90;;;18.50;30.00;;;;;;5087496;28;46952;-15
2022/01/15 12:58:05;;;;;;;7.55;6.75;;;18.50;30.00;;;;;;5086721;28;49099;-16
2022/01/15 13:00:32;;;;;;;6.82;6.03;;;18.50;30.00;;;;;;5086818;28;46890;-15
2022/01/15 13:03:00;;;;;;;7.25;6.47;;;18.50;30.00;;;;;;5086634;28;46985;-14
2022/01/15 13:05:28;;;;;;;7.72;6.82;;;18.50;30.00;;;;;;5086518;27;47036;-16
2022/01/15 13:07:56;;;;;;;7.57;6.68;;;18.40;30.00;;;;;;5086702;28;48861;-15
2022/01/15 13:10:35;;;;;;;7.57;6.40;;;18.40;30.00;;;;;;5086650;28;46850;-15